createdAt,value
2022-12-24T00:00:03.902Z,8.89
2022-12-24T00:02:30.441Z,8.90
2022-12-24T00:05:00.773Z,8.89
2022-12-24T00:07:27.710Z,8.88
2022-12-24T00:09:54.165Z,8.90
2022-12-24T00:12:20.489Z,8.85
2022-12-24T00:14:46.930Z,8.84
2022-12-24T00:17:13.588Z,8.85
2022-12-24T00:19:40.024Z,8.85
2022-12-24T00:22:06.491Z,8.88
2022-12-24T00:24:32.928Z,8.88
2022-12-24T00:26:59.371Z,8.88
2022-12-24T00:29:25.915Z,8.91
2022-12-24T00:31:52.274Z,8.87
2022-12-24T00:34:18.828Z,8.89
2022-12-24T00:36:45.201Z,8.85
2022-12-24T00:39:11.598Z,8.84
2022-12-24T00:41:37.987Z,8.82
2022-12-24T00:44:09.959Z,8.78
2022-12-24T00:46:38.115Z,8.76
2022-12-24T00:49:05.929Z,8.74
2022-12-24T00:51:33.498Z,8.73
2022-12-24T00:53:59.946Z,8.71
2022-12-24T00:56:26.613Z,8.68
2022-12-24T00:58:53.195Z,8.69
2022-12-24T01:01:20.383Z,8.70
2022-12-24T01:03:47.861Z,8.70
2022-12-24T01:06:20.353Z,8.67
2022-12-24T01:08:51.223Z,8.65
2022-12-24T01:11:18.197Z,8.63
2022-12-24T01:13:44.621Z,8.62
2022-12-24T01:16:17.295Z,8.63
2022-12-24T01:18:43.884Z,8.60
2022-12-24T01:21:10.502Z,8.54
2022-12-24T01:23:36.984Z,8.51
2022-12-24T01:26:05.199Z,8.48
2022-12-24T01:28:33.104Z,8.41
2022-12-24T01:31:00.239Z,8.38
2022-12-24T01:33:30.203Z,8.35
2022-12-24T01:35:56.626Z,8.34
2022-12-24T01:38:22.991Z,8.28
2022-12-24T01:41:07.899Z,8.22
2022-12-24T01:43:34.443Z,8.13
2022-12-24T01:46:07.018Z,8.06
2022-12-24T01:48:52.977Z,8.00
2022-12-24T01:51:39.750Z,7.95
2022-12-24T01:54:26.330Z,7.89
2022-12-24T01:57:07.780Z,7.84
2022-12-24T01:59:36.122Z,7.76
2022-12-24T02:02:03.138Z,7.75
2022-12-24T02:04:39.974Z,7.74
2022-12-24T02:07:06.440Z,7.68
2022-12-24T02:09:34.653Z,7.59
2022-12-24T02:12:01.665Z,7.59
2022-12-24T02:14:32.311Z,7.54
2022-12-24T02:17:17.768Z,7.53
2022-12-24T02:20:27.408Z,7.49
2022-12-24T02:23:31.161Z,7.43
2022-12-24T02:26:31.845Z,7.35
2022-12-24T02:29:24.992Z,7.33
2022-12-24T02:32:05.156Z,7.30
2022-12-24T02:34:51.488Z,7.23
2022-12-24T02:37:25.446Z,7.20
2022-12-24T02:40:12.146Z,7.19
2022-12-24T02:42:45.027Z,7.17
2022-12-24T02:45:15.968Z,7.17
2022-12-24T02:47:44.826Z,7.12
2022-12-24T02:50:17.224Z,7.06
2022-12-24T02:52:46.537Z,7.06
2022-12-24T02:55:36.915Z,7.03
2022-12-24T02:58:21.713Z,7.00
2022-12-24T03:00:55.075Z,6.98
2022-12-24T03:03:38.333Z,6.92
2022-12-24T03:06:20.978Z,6.90
2022-12-24T03:08:53.406Z,6.89
2022-12-24T03:11:20.233Z,6.88
2022-12-24T03:13:48.614Z,6.88
2022-12-24T03:16:23.083Z,6.87
2022-12-24T03:18:50.775Z,6.88
2022-12-24T03:21:38.601Z,6.85
2022-12-24T03:24:05.330Z,6.85
2022-12-24T03:26:33.289Z,6.86
2022-12-24T03:29:00.380Z,6.86
2022-12-24T03:31:26.816Z,6.85
2022-12-24T03:33:53.328Z,6.83
2022-12-24T03:36:19.864Z,6.84
2022-12-24T03:38:46.258Z,6.83
2022-12-24T03:41:12.790Z,6.83
2022-12-24T03:43:39.141Z,6.82
2022-12-24T03:46:07.539Z,6.77
2022-12-24T03:48:35.675Z,6.74
2022-12-24T03:51:03.108Z,6.82
2022-12-24T03:53:29.571Z,6.85
2022-12-24T03:55:56.071Z,6.91
2022-12-24T03:58:22.523Z,6.95
2022-12-24T04:00:49.028Z,6.98
2022-12-24T04:03:15.520Z,7.07
2022-12-24T04:05:42.192Z,7.11
2022-12-24T04:08:08.695Z,7.16
2022-12-24T04:10:35.302Z,7.19
2022-12-24T04:13:01.712Z,7.25
2022-12-24T04:15:28.150Z,7.37
2022-12-24T04:17:54.605Z,7.42
2022-12-24T04:20:20.947Z,7.44
2022-12-24T04:22:47.348Z,7.43
2022-12-24T04:25:13.763Z,7.46
2022-12-24T04:27:40.216Z,7.53
2022-12-24T04:30:07.312Z,7.57
2022-12-24T04:32:33.823Z,7.62
2022-12-24T04:35:00.204Z,7.66
2022-12-24T04:37:26.733Z,7.71
2022-12-24T04:39:53.146Z,7.73
2022-12-24T04:42:19.560Z,7.75
2022-12-24T04:44:46.073Z,7.78
2022-12-24T04:47:12.453Z,7.80
2022-12-24T04:49:38.963Z,7.80
2022-12-24T04:52:05.394Z,7.85
2022-12-24T04:54:31.779Z,7.81
2022-12-24T04:56:58.192Z,7.80
2022-12-24T04:59:24.553Z,7.76
2022-12-24T05:01:51.012Z,7.74
2022-12-24T05:04:17.410Z,7.77
2022-12-24T05:06:43.731Z,7.77
2022-12-24T05:09:10.101Z,7.81
2022-12-24T05:11:36.440Z,7.83
2022-12-24T05:14:02.906Z,7.86
2022-12-24T05:16:29.288Z,7.87
2022-12-24T05:18:55.789Z,7.88
2022-12-24T05:21:24.400Z,7.90
2022-12-24T05:24:10.349Z,7.94
2022-12-24T05:26:41.448Z,7.91
2022-12-24T05:29:08.837Z,7.92
2022-12-24T05:31:36.011Z,7.95
2022-12-24T05:34:03.160Z,7.98
2022-12-24T05:36:29.872Z,8.02
2022-12-24T05:38:56.294Z,8.01
2022-12-24T05:41:23.108Z,8.03
2022-12-24T05:43:49.650Z,8.05
2022-12-24T05:46:18.977Z,8.07
2022-12-24T05:48:46.032Z,8.08
2022-12-24T05:51:14.674Z,8.11
2022-12-24T05:53:41.573Z,8.12
2022-12-24T05:56:11.637Z,8.13
2022-12-24T05:58:38.854Z,8.15
2022-12-24T06:01:05.824Z,8.12
2022-12-24T06:03:33.070Z,8.16
2022-12-24T06:06:04.654Z,8.17
2022-12-24T06:08:32.522Z,8.23
2022-12-24T06:11:00.918Z,8.23
2022-12-24T06:13:27.918Z,8.23
2022-12-24T06:15:55.750Z,8.20
2022-12-24T06:18:22.907Z,8.21
2022-12-24T06:20:53.510Z,8.20
2022-12-24T06:23:21.072Z,8.23
2022-12-24T06:25:47.951Z,8.25
2022-12-24T06:28:14.502Z,8.27
2022-12-24T06:30:41.854Z,8.28
2022-12-24T06:33:08.320Z,8.28
2022-12-24T06:35:34.793Z,8.27
2022-12-24T06:38:01.136Z,8.25
2022-12-24T06:40:27.997Z,8.27
2022-12-24T06:42:54.534Z,8.27
2022-12-24T06:45:21.194Z,8.31
2022-12-24T06:47:47.561Z,8.31
2022-12-24T06:50:14.073Z,8.33
2022-12-24T06:52:40.512Z,8.34
2022-12-24T06:55:07.578Z,8.35
2022-12-24T06:57:34.100Z,8.36
2022-12-24T07:00:00.714Z,8.36
2022-12-24T07:02:28.120Z,8.36
2022-12-24T07:04:54.631Z,8.38
2022-12-24T07:07:21.110Z,8.40
2022-12-24T07:09:47.465Z,8.39
2022-12-24T07:12:13.817Z,8.38
2022-12-24T07:14:40.235Z,8.37
2022-12-24T07:17:06.718Z,8.37
2022-12-24T07:19:34.182Z,8.34
2022-12-24T07:22:00.708Z,8.29
2022-12-24T07:24:27.095Z,8.28
2022-12-24T07:26:53.503Z,8.24
2022-12-24T07:29:20.454Z,8.19
2022-12-24T07:31:47.001Z,8.18
2022-12-24T07:34:13.451Z,8.20
2022-12-24T07:36:39.770Z,8.26
2022-12-24T07:39:06.170Z,8.28
2022-12-24T07:41:38.007Z,8.33
2022-12-24T07:44:12.593Z,8.34
2022-12-24T07:46:39.430Z,8.35
2022-12-24T07:49:05.833Z,8.36
2022-12-24T07:51:32.199Z,8.35
2022-12-24T07:53:58.753Z,8.37
2022-12-24T07:56:25.250Z,8.36
2022-12-24T07:58:52.150Z,8.36
2022-12-24T08:01:18.988Z,8.37
2022-12-24T08:03:45.707Z,8.37
2022-12-24T08:06:12.325Z,8.41
2022-12-24T08:08:38.680Z,8.42
2022-12-24T08:11:07.192Z,8.42
2022-12-24T08:13:34.194Z,8.43
2022-12-24T08:16:00.895Z,8.43
2022-12-24T08:18:27.416Z,8.43
2022-12-24T08:20:53.817Z,8.43
2022-12-24T08:23:20.273Z,8.44
2022-12-24T08:25:48.309Z,8.44
2022-12-24T08:28:17.029Z,8.44
2022-12-24T08:30:44.344Z,8.44
2022-12-24T08:33:11.309Z,8.42
2022-12-24T08:35:38.021Z,8.48
2022-12-24T08:38:04.415Z,8.54
2022-12-24T08:40:30.793Z,8.61
2022-12-24T08:42:57.289Z,8.63
2022-12-24T08:45:23.734Z,8.66
2022-12-24T08:47:50.172Z,8.66
2022-12-24T08:50:16.629Z,8.70
2022-12-24T08:52:43.041Z,8.69
2022-12-24T08:55:09.389Z,8.69
2022-12-24T08:57:37.275Z,8.69
2022-12-24T09:00:06.888Z,8.72
2022-12-24T09:02:33.470Z,8.77
2022-12-24T09:04:59.978Z,8.79
2022-12-24T09:07:26.391Z,8.86
2022-12-24T09:09:52.791Z,8.91
2022-12-24T09:12:19.188Z,8.92
2022-12-24T09:14:45.612Z,8.92
2022-12-24T09:17:12.013Z,8.93
2022-12-24T09:19:38.562Z,8.93
2022-12-24T09:22:04.903Z,8.96
2022-12-24T09:24:31.243Z,8.96
2022-12-24T09:26:58.296Z,8.98
2022-12-24T09:29:25.322Z,8.99
2022-12-24T09:31:51.857Z,9.01
2022-12-24T09:34:18.313Z,9.03
2022-12-24T09:36:46.208Z,9.07
2022-12-24T09:39:13.170Z,9.10
2022-12-24T09:41:58.048Z,9.14
2022-12-24T09:44:36.819Z,9.20
2022-12-24T09:47:11.560Z,9.24
2022-12-24T09:49:42.528Z,9.22
2022-12-24T09:52:14.279Z,9.22
2022-12-24T09:54:49.996Z,9.22
2022-12-24T09:57:44.256Z,9.17
2022-12-24T10:00:37.940Z,9.15
2022-12-24T10:03:15.761Z,9.20
2022-12-24T10:06:05.632Z,9.31
2022-12-24T10:08:40.767Z,9.31
2022-12-24T10:11:22.308Z,9.27
2022-12-24T10:14:21.196Z,9.23
2022-12-24T10:17:20.076Z,9.23
2022-12-24T10:19:59.811Z,9.27
2022-12-24T10:22:35.075Z,9.29
2022-12-24T10:25:23.237Z,9.28
2022-12-24T10:27:52.492Z,9.38
2022-12-24T10:30:22.663Z,9.51
2022-12-24T10:32:51.395Z,9.62
2022-12-24T10:35:20.520Z,9.63
2022-12-24T10:37:49.398Z,9.73
2022-12-24T10:40:24.741Z,9.85
2022-12-24T10:42:51.947Z,9.97
2022-12-24T10:45:21.578Z,10.14
2022-12-24T10:47:52.740Z,10.24
2022-12-24T10:50:33.705Z,10.26
2022-12-24T10:53:27.121Z,10.14
2022-12-24T10:56:02.318Z,10.14
2022-12-24T10:58:28.828Z,10.16
2022-12-24T11:00:55.482Z,10.08
2022-12-24T11:03:24.717Z,9.99
2022-12-24T11:06:03.893Z,9.96
2022-12-24T11:08:30.378Z,9.98
2022-12-24T11:11:00.045Z,10.04
2022-12-24T11:13:37.916Z,10.02
2022-12-24T11:16:10.499Z,9.97
2022-12-24T11:18:50.535Z,9.92
2022-12-24T11:21:39.413Z,9.85
2022-12-24T11:24:21.312Z,9.84
2022-12-24T11:26:47.706Z,9.92
2022-12-24T11:29:22.877Z,10.00
2022-12-24T11:31:50.593Z,10.00
2022-12-24T11:34:37.169Z,9.98
2022-12-24T11:37:24.255Z,9.92
2022-12-24T11:39:51.928Z,9.88
2022-12-24T11:42:26.374Z,9.88
2022-12-24T11:44:56.909Z,9.86
2022-12-24T11:47:33.988Z,9.82
2022-12-24T11:50:22.327Z,9.82
2022-12-24T11:52:58.966Z,9.83
2022-12-24T11:55:37.466Z,9.87
2022-12-24T11:58:41.433Z,9.83
2022-12-24T12:01:45.601Z,9.84
2022-12-24T12:04:25.084Z,9.88
2022-12-24T12:06:58.628Z,9.93
2022-12-24T12:09:31.264Z,10.03
2022-12-24T12:12:06.210Z,10.11
2022-12-24T12:14:53.477Z,10.13
2022-12-24T12:17:22.922Z,10.15
2022-12-24T12:20:06.540Z,10.13
2022-12-24T12:22:37.692Z,10.17
2022-12-24T12:25:07.309Z,10.12
2022-12-24T12:27:44.849Z,10.07
2022-12-24T12:30:17.912Z,10.03
2022-12-24T12:33:00.231Z,10.04
2022-12-24T12:35:34.937Z,10.03
2022-12-24T12:38:06.071Z,10.02
2022-12-24T12:40:53.696Z,10.02
2022-12-24T12:43:32.775Z,9.96
2022-12-24T12:46:06.814Z,9.95
2022-12-24T12:48:42.050Z,10.02
2022-12-24T12:51:14.796Z,10.08
2022-12-24T12:53:54.028Z,10.14
2022-12-24T12:56:29.543Z,10.17
2022-12-24T12:59:04.354Z,10.12
2022-12-24T13:01:47.616Z,10.09
2022-12-24T13:04:57.904Z,10.02
2022-12-24T13:07:49.856Z,9.97
2022-12-24T13:10:32.832Z,9.94
2022-12-24T13:12:59.167Z,9.99
2022-12-24T13:15:37.730Z,9.90
2022-12-24T13:18:10.077Z,9.88
2022-12-24T13:20:46.570Z,9.86
2022-12-24T13:23:17.745Z,9.92
2022-12-24T13:26:11.241Z,10.03
2022-12-24T13:28:38.561Z,10.07
2022-12-24T13:31:17.218Z,10.14
2022-12-24T13:33:43.618Z,10.22
2022-12-24T13:36:16.660Z,10.28
2022-12-24T13:38:52.314Z,10.33
2022-12-24T13:41:39.514Z,10.29
2022-12-24T13:44:06.645Z,10.33
2022-12-24T13:47:15.694Z,10.35
2022-12-24T13:49:51.337Z,10.37
2022-12-24T13:52:25.097Z,10.36
2022-12-24T13:54:54.193Z,10.19
2022-12-24T13:57:31.837Z,10.10
2022-12-24T14:00:08.707Z,10.03
2022-12-24T14:02:39.437Z,10.00
2022-12-24T14:05:21.475Z,9.99
2022-12-24T14:07:50.284Z,9.97
2022-12-24T14:10:25.043Z,9.96
2022-12-24T14:12:53.337Z,10.02
2022-12-24T14:15:50.945Z,10.07
2022-12-24T14:18:23.398Z,10.06
2022-12-24T14:20:55.320Z,10.06
2022-12-24T14:23:33.040Z,10.05
2022-12-24T14:26:02.161Z,10.06
2022-12-24T14:28:35.781Z,10.03
2022-12-24T14:31:03.885Z,10.03
2022-12-24T14:33:32.291Z,9.97
2022-12-24T14:36:00.793Z,9.97
2022-12-24T14:38:28.166Z,10.02
2022-12-24T14:41:16.393Z,9.95
2022-12-24T14:43:50.510Z,9.96
2022-12-24T14:46:27.584Z,9.97
2022-12-24T14:49:06.446Z,9.91
2022-12-24T14:51:50.920Z,9.90
2022-12-24T14:54:31.712Z,9.88
2022-12-24T14:57:27.492Z,9.80
2022-12-24T14:59:53.863Z,9.74
2022-12-24T15:02:49.428Z,9.68
2022-12-24T15:05:24.764Z,9.58
2022-12-24T15:08:08.684Z,9.54
2022-12-24T15:10:37.983Z,9.46
2022-12-24T15:13:44.821Z,9.40
2022-12-24T15:16:14.620Z,9.34
2022-12-24T15:18:55.585Z,9.29
2022-12-24T15:21:37.701Z,9.22
2022-12-24T15:24:04.420Z,9.16
2022-12-24T15:26:34.894Z,9.12
2022-12-24T15:29:03.924Z,9.08
2022-12-24T15:31:31.462Z,9.03
2022-12-24T15:34:01.767Z,9.00
2022-12-24T15:36:34.619Z,8.94
2022-12-24T15:39:06.082Z,8.88
2022-12-24T15:42:02.315Z,8.81
2022-12-24T15:44:33.041Z,8.76
2022-12-24T15:47:00.508Z,8.71
2022-12-24T15:49:29.846Z,8.66
2022-12-24T15:52:04.750Z,8.61
2022-12-24T15:54:31.797Z,8.55
2022-12-24T15:56:58.277Z,8.53
2022-12-24T15:59:31.305Z,8.49
2022-12-24T16:02:31.056Z,8.46
2022-12-24T16:05:33.488Z,8.42
2022-12-24T16:08:07.700Z,8.38
2022-12-24T16:10:38.877Z,8.33
2022-12-24T16:13:21.987Z,8.25
2022-12-24T16:15:53.045Z,8.22
2022-12-24T16:18:24.391Z,8.19
2022-12-24T16:20:52.100Z,8.16
2022-12-24T16:23:22.344Z,8.10
2022-12-24T16:25:49.067Z,8.08
2022-12-24T16:28:22.010Z,8.03
2022-12-24T16:30:49.409Z,7.98
2022-12-24T16:33:18.682Z,7.91
2022-12-24T16:35:46.527Z,7.85
2022-12-24T16:38:13.629Z,7.78
2022-12-24T16:40:41.550Z,7.73
2022-12-24T16:43:27.529Z,7.65
2022-12-24T16:45:54.598Z,7.61
2022-12-24T16:48:24.492Z,7.59
2022-12-24T16:50:52.248Z,7.53
2022-12-24T16:53:20.945Z,7.49
2022-12-24T16:55:49.900Z,7.43
2022-12-24T16:58:18.327Z,7.39
2022-12-24T17:00:45.363Z,7.38
2022-12-24T17:03:12.366Z,7.32
2022-12-24T17:05:40.855Z,7.25
2022-12-24T17:08:07.996Z,7.21
2022-12-24T17:10:34.917Z,7.19
2022-12-24T17:13:01.666Z,7.17
2022-12-24T17:15:28.028Z,7.12
2022-12-24T17:17:54.379Z,7.03
2022-12-24T17:20:24.315Z,6.97
2022-12-24T17:22:51.215Z,6.92
2022-12-24T17:25:17.652Z,6.83
2022-12-24T17:27:44.050Z,6.73
2022-12-24T17:30:10.692Z,6.67
2022-12-24T17:32:37.445Z,6.62
2022-12-24T17:35:04.177Z,6.56
2022-12-24T17:37:30.652Z,6.50
2022-12-24T17:39:57.042Z,6.48
2022-12-24T17:42:23.449Z,6.42
2022-12-24T17:44:49.879Z,6.42
2022-12-24T17:47:16.462Z,6.40
2022-12-24T17:49:42.810Z,6.38
2022-12-24T17:52:09.189Z,6.37
2022-12-24T17:54:35.576Z,6.29
2022-12-24T17:57:01.930Z,6.27
2022-12-24T17:59:28.369Z,6.28
2022-12-24T18:01:54.955Z,6.25
2022-12-24T18:04:21.566Z,6.21
2022-12-24T18:06:49.742Z,6.17
2022-12-24T18:09:16.674Z,6.16
2022-12-24T18:11:43.527Z,6.08
2022-12-24T18:14:13.773Z,6.02
2022-12-24T18:16:41.270Z,5.94
2022-12-24T18:19:10.590Z,5.90
2022-12-24T18:21:37.355Z,5.85
2022-12-24T18:24:04.706Z,5.81
2022-12-24T18:26:33.071Z,5.75
2022-12-24T18:29:01.143Z,5.69
2022-12-24T18:31:29.574Z,5.65
2022-12-24T18:33:56.826Z,5.62
2022-12-24T18:36:23.522Z,5.65
2022-12-24T18:38:50.179Z,5.62
2022-12-24T18:41:21.734Z,5.63
2022-12-24T18:43:48.451Z,5.61
2022-12-24T18:46:18.049Z,5.58
2022-12-24T18:48:44.551Z,5.54
2022-12-24T18:51:11.151Z,5.55
2022-12-24T18:53:38.260Z,5.50
2022-12-24T18:56:11.928Z,5.44
2022-12-24T18:58:38.686Z,5.42
2022-12-24T19:01:20.298Z,5.37
2022-12-24T19:03:47.118Z,5.32
2022-12-24T19:06:13.520Z,5.29
2022-12-24T19:08:56.957Z,5.28
2022-12-24T19:11:25.102Z,5.29
2022-12-24T19:13:53.002Z,5.31
2022-12-24T19:16:20.357Z,5.26
2022-12-24T19:18:47.171Z,5.22
2022-12-24T19:21:15.006Z,5.26
2022-12-24T19:23:41.454Z,5.29
2022-12-24T19:26:09.319Z,5.28
2022-12-24T19:28:35.721Z,5.26
2022-12-24T19:31:07.464Z,5.30
2022-12-24T19:33:43.341Z,5.34
2022-12-24T19:36:15.959Z,5.28
2022-12-24T19:38:42.627Z,5.22
2022-12-24T19:41:14.456Z,5.18
2022-12-24T19:43:44.371Z,5.17
2022-12-24T19:46:14.523Z,5.18
2022-12-24T19:48:42.150Z,5.18
2022-12-24T19:51:11.329Z,5.19
2022-12-24T19:53:38.785Z,5.24
2022-12-24T19:56:05.766Z,5.21
2022-12-24T19:58:34.974Z,5.23
2022-12-24T20:01:32.170Z,5.29
2022-12-24T20:03:59.337Z,5.29
2022-12-24T20:06:32.101Z,5.27
2022-12-24T20:09:00.350Z,5.29
2022-12-24T20:11:26.824Z,5.30
2022-12-24T20:13:57.341Z,5.34
2022-12-24T20:16:24.331Z,5.37
2022-12-24T20:18:59.062Z,5.40
2022-12-24T20:21:26.264Z,5.53
2022-12-24T20:23:53.330Z,5.61
2022-12-24T20:26:24.492Z,5.62
2022-12-24T20:28:51.543Z,5.70
2022-12-24T20:31:19.690Z,5.82
2022-12-24T20:33:46.752Z,5.93
2022-12-24T20:36:16.122Z,6.01
2022-12-24T20:38:43.439Z,6.04
2022-12-24T20:41:11.301Z,6.07
2022-12-24T20:43:45.007Z,6.12
2022-12-24T20:46:11.809Z,6.11
2022-12-24T20:48:39.443Z,6.12
2022-12-24T20:51:16.085Z,6.16
2022-12-24T20:53:47.726Z,6.16
2022-12-24T20:56:16.524Z,6.17
2022-12-24T20:58:43.219Z,6.19
2022-12-24T21:01:11.686Z,6.19
2022-12-24T21:03:38.207Z,6.22
2022-12-24T21:06:04.920Z,6.20
2022-12-24T21:08:31.375Z,6.22
2022-12-24T21:11:18.081Z,6.21
2022-12-24T21:13:44.463Z,6.27
2022-12-24T21:16:10.912Z,6.28
2022-12-24T21:18:37.355Z,6.31
2022-12-24T21:21:03.741Z,6.31
2022-12-24T21:23:30.154Z,6.32
2022-12-24T21:26:00.853Z,6.34
2022-12-24T21:28:28.408Z,6.33
2022-12-24T21:30:54.858Z,6.29
2022-12-24T21:33:21.670Z,6.27
2022-12-24T21:35:48.115Z,6.28
2022-12-24T21:38:14.762Z,6.23
2022-12-24T21:40:41.118Z,6.22
2022-12-24T21:43:07.604Z,6.21
2022-12-24T21:45:34.431Z,6.24
2022-12-24T21:48:20.839Z,6.23
2022-12-24T21:50:56.889Z,6.22
2022-12-24T21:53:41.909Z,6.20
2022-12-24T21:56:12.558Z,6.17
2022-12-24T21:58:38.904Z,6.15
2022-12-24T22:01:10.041Z,6.09
2022-12-24T22:03:39.666Z,6.11
2022-12-24T22:06:07.069Z,6.12
2022-12-24T22:08:52.822Z,6.10
2022-12-24T22:11:38.189Z,6.06
2022-12-24T22:14:04.528Z,6.11
2022-12-24T22:16:30.974Z,6.14
2022-12-24T22:18:57.571Z,6.11
2022-12-24T22:21:23.969Z,6.08
2022-12-24T22:23:50.423Z,6.05
2022-12-24T22:26:17.991Z,6.07
2022-12-24T22:28:44.367Z,6.07
2022-12-24T22:31:23.180Z,6.07
2022-12-24T22:33:50.558Z,6.06
2022-12-24T22:36:17.011Z,6.07
2022-12-24T22:38:44.584Z,6.03
2022-12-24T22:41:13.491Z,6.04
2022-12-24T22:43:40.220Z,6.02
2022-12-24T22:46:08.542Z,5.98
2022-12-24T22:48:35.848Z,6.02
2022-12-24T22:51:09.828Z,5.97
2022-12-24T22:53:37.014Z,5.97
2022-12-24T22:56:04.319Z,5.99
2022-12-24T22:58:30.800Z,6.00
2022-12-24T23:00:57.926Z,6.03
2022-12-24T23:03:25.228Z,6.08
2022-12-24T23:06:03.964Z,6.08
2022-12-24T23:08:33.350Z,6.09
2022-12-24T23:11:12.086Z,6.09
2022-12-24T23:13:58.862Z,6.05
2022-12-24T23:16:29.969Z,6.05
2022-12-24T23:18:58.170Z,6.02
2022-12-24T23:21:24.742Z,6.02
2022-12-24T23:23:52.018Z,6.00
2022-12-24T23:26:21.019Z,5.95
2022-12-24T23:28:48.285Z,5.97
2022-12-24T23:31:16.316Z,6.00
2022-12-24T23:33:42.914Z,6.02
2022-12-24T23:36:09.962Z,6.04
2022-12-24T23:38:36.383Z,6.06
2022-12-24T23:41:05.251Z,6.05
2022-12-24T23:43:32.390Z,6.09
2022-12-24T23:45:58.865Z,6.12
2022-12-24T23:48:26.808Z,6.15
2022-12-24T23:51:03.681Z,6.16
2022-12-24T23:53:30.024Z,6.22
2022-12-24T23:55:56.477Z,6.24
2022-12-24T23:58:22.810Z,6.28
